createdAt,value
2023-07-14T00:02:07.055Z,20.20
2023-07-14T00:04:35.484Z,20.20
2023-07-14T00:07:04.983Z,20.20
2023-07-14T00:09:33.832Z,20.20
2023-07-14T00:12:01.699Z,20.20
2023-07-14T00:14:48.763Z,20.10
2023-07-14T00:17:16.537Z,20.10
2023-07-14T00:19:44.220Z,20.20
2023-07-14T00:22:16.859Z,20.20
2023-07-14T00:24:44.769Z,20.20
2023-07-14T00:27:21.730Z,20.20
2023-07-14T00:29:50.755Z,20.10
2023-07-14T00:32:23.728Z,20.00
2023-07-14T00:34:51.623Z,20.00
2023-07-14T00:37:20.067Z,19.90
2023-07-14T00:39:48.676Z,20.00
2023-07-14T00:42:18.217Z,20.00
2023-07-14T00:44:47.399Z,20.00
2023-07-14T00:47:28.445Z,20.00
2023-07-14T00:49:57.669Z,20.00
2023-07-14T00:52:39.003Z,20.00
2023-07-14T00:55:33.334Z,20.00
2023-07-14T00:58:01.145Z,20.00
2023-07-14T01:00:31.650Z,19.80
2023-07-14T01:03:01.107Z,19.80
2023-07-14T01:05:30.113Z,19.90
2023-07-14T01:07:59.154Z,19.90
2023-07-14T01:10:39.905Z,19.90
2023-07-14T01:13:09.871Z,20.00
2023-07-14T01:15:40.225Z,20.00
2023-07-14T01:18:10.358Z,19.90
2023-07-14T01:20:39.702Z,19.90
2023-07-14T01:23:21.842Z,19.80
2023-07-14T01:25:58.468Z,19.70
2023-07-14T01:28:26.183Z,19.70
2023-07-14T01:30:53.808Z,19.70
2023-07-14T01:33:22.424Z,19.70
2023-07-14T01:35:56.639Z,19.70
2023-07-14T01:38:24.811Z,19.70
2023-07-14T01:40:54.514Z,19.70
2023-07-14T01:43:22.599Z,19.80
2023-07-14T01:45:52.644Z,19.70
2023-07-14T01:48:25.576Z,19.70
2023-07-14T01:50:58.049Z,19.70
2023-07-14T01:53:51.401Z,19.70
2023-07-14T01:56:21.555Z,19.80
2023-07-14T01:59:01.705Z,19.70
2023-07-14T02:01:31.242Z,19.80
2023-07-14T02:03:59.850Z,19.70
2023-07-14T02:06:27.844Z,19.70
2023-07-14T02:08:55.594Z,19.60
2023-07-14T02:11:24.443Z,19.60
2023-07-14T02:13:53.672Z,19.60
2023-07-14T02:16:22.649Z,19.70
2023-07-14T02:18:51.542Z,19.70
2023-07-14T02:21:30.819Z,19.40
2023-07-14T02:24:00.895Z,19.30
2023-07-14T02:26:36.901Z,19.10
2023-07-14T02:29:10.848Z,19.00
2023-07-14T02:31:43.918Z,18.60
2023-07-14T02:34:14.124Z,18.70
2023-07-14T02:37:01.868Z,18.80
2023-07-14T02:39:38.331Z,18.80
2023-07-14T02:42:06.535Z,18.40
2023-07-14T02:44:37.816Z,18.30
2023-07-14T02:47:14.295Z,18.30
2023-07-14T02:49:43.036Z,18.50
2023-07-14T02:52:10.784Z,18.40
2023-07-14T02:54:40.304Z,18.50
2023-07-14T02:57:08.369Z,18.60
2023-07-14T02:59:36.046Z,18.40
2023-07-14T03:02:04.404Z,18.30
2023-07-14T03:04:32.138Z,18.20
2023-07-14T03:06:59.805Z,18.30
2023-07-14T03:09:27.539Z,18.30
2023-07-14T03:11:55.276Z,18.20
2023-07-14T03:14:22.936Z,18.10
2023-07-14T03:16:50.576Z,18.10
2023-07-14T03:19:18.503Z,18.20
2023-07-14T03:21:46.244Z,18.20
2023-07-14T03:24:13.878Z,18.30
2023-07-14T03:26:41.556Z,18.20
2023-07-14T03:29:10.520Z,18.20
2023-07-14T03:31:38.244Z,18.20
2023-07-14T03:34:06.175Z,18.30
2023-07-14T03:36:33.839Z,18.70
2023-07-14T03:39:20.486Z,18.70
2023-07-14T03:41:48.311Z,18.90
2023-07-14T03:44:15.937Z,18.60
2023-07-14T03:46:43.677Z,18.70
2023-07-14T03:49:11.409Z,18.50
2023-07-14T03:51:39.326Z,18.50
2023-07-14T03:54:07.504Z,18.50
2023-07-14T03:56:35.372Z,18.20
2023-07-14T03:59:03.406Z,18.50
2023-07-14T04:01:31.284Z,18.40
2023-07-14T04:04:01.408Z,18.50
2023-07-14T04:06:32.607Z,18.60
2023-07-14T04:09:01.804Z,18.70
2023-07-14T04:11:37.086Z,18.70
2023-07-14T04:14:06.284Z,18.70
2023-07-14T04:16:36.858Z,18.70
2023-07-14T04:19:05.096Z,18.80
2023-07-14T04:21:33.451Z,18.80
2023-07-14T04:24:01.127Z,18.80
2023-07-14T04:26:30.212Z,18.90
2023-07-14T04:28:58.580Z,18.80
2023-07-14T04:31:26.277Z,18.90
2023-07-14T04:33:53.989Z,18.70
2023-07-14T04:36:21.633Z,18.70
2023-07-14T04:39:10.836Z,18.90
2023-07-14T04:41:39.010Z,19.00
2023-07-14T04:44:10.171Z,19.30
2023-07-14T04:46:38.812Z,19.40
2023-07-14T04:49:07.603Z,19.40
2023-07-14T04:51:35.862Z,19.50
2023-07-14T04:54:04.141Z,19.60
2023-07-14T04:56:33.717Z,19.80
2023-07-14T04:59:01.509Z,19.80
2023-07-14T05:01:29.562Z,20.00
2023-07-14T05:03:57.765Z,20.30
2023-07-14T05:06:25.691Z,20.20
2023-07-14T05:08:53.455Z,20.40
2023-07-14T05:11:21.236Z,20.50
2023-07-14T05:13:52.580Z,20.60
2023-07-14T05:16:21.017Z,20.60
2023-07-14T05:18:49.485Z,20.60
2023-07-14T05:21:17.275Z,20.80
2023-07-14T05:23:44.919Z,20.90
2023-07-14T05:26:12.851Z,21.10
2023-07-14T05:28:40.733Z,21.10
2023-07-14T05:31:09.909Z,21.30
2023-07-14T05:33:37.613Z,21.40
2023-07-14T05:36:06.101Z,21.60
2023-07-14T05:38:33.711Z,21.80
2023-07-14T05:41:05.197Z,22.00
2023-07-14T05:43:33.180Z,21.90
2023-07-14T05:46:00.948Z,22.20
2023-07-14T05:48:28.696Z,22.40
2023-07-14T05:50:56.388Z,22.60
2023-07-14T05:53:24.035Z,22.70
2023-07-14T05:55:51.772Z,22.50
2023-07-14T05:58:19.501Z,22.30
2023-07-14T06:00:47.131Z,22.30
2023-07-14T06:03:19.800Z,22.30
2023-07-14T06:05:48.924Z,22.30
2023-07-14T06:08:17.200Z,22.60
2023-07-14T06:10:45.112Z,22.60
2023-07-14T06:13:12.769Z,22.50
2023-07-14T06:15:40.429Z,22.90
2023-07-14T06:18:08.163Z,23.20
2023-07-14T06:20:35.875Z,22.80
2023-07-14T06:23:03.763Z,22.90
2023-07-14T06:25:31.697Z,23.50
2023-07-14T06:27:59.442Z,23.80
2023-07-14T06:30:27.154Z,23.50
2023-07-14T06:32:54.889Z,23.70
2023-07-14T06:35:23.913Z,24.00
2023-07-14T06:37:51.590Z,24.30
2023-07-14T06:40:21.889Z,24.00
2023-07-14T06:42:49.618Z,24.00
2023-07-14T06:45:17.751Z,24.00
2023-07-14T06:47:45.415Z,24.00
2023-07-14T06:50:13.097Z,24.30
2023-07-14T06:52:40.729Z,24.60
2023-07-14T06:55:09.209Z,24.70
2023-07-14T06:57:37.136Z,24.50
2023-07-14T07:00:10.400Z,24.40
2023-07-14T07:02:38.261Z,24.70
2023-07-14T07:05:07.916Z,25.10
2023-07-14T07:07:35.785Z,25.00
2023-07-14T07:10:05.078Z,25.00
2023-07-14T07:12:33.169Z,25.20
2023-07-14T07:15:00.888Z,25.20
2023-07-14T07:17:28.758Z,25.30
2023-07-14T07:19:56.481Z,25.30
2023-07-14T07:22:24.287Z,25.40
2023-07-14T07:24:51.915Z,25.70
2023-07-14T07:27:19.620Z,25.80
2023-07-14T07:29:47.361Z,25.50
2023-07-14T07:32:15.085Z,25.40
2023-07-14T07:34:42.871Z,25.20
2023-07-14T07:37:11.894Z,25.30
2023-07-14T07:39:40.068Z,25.80
2023-07-14T07:42:08.982Z,26.10
2023-07-14T07:44:37.545Z,25.80
2023-07-14T07:47:05.743Z,25.10
2023-07-14T07:49:33.567Z,25.10
2023-07-14T07:52:01.277Z,25.40
2023-07-14T07:54:29.127Z,25.00
2023-07-14T07:56:56.871Z,25.40
2023-07-14T07:59:24.734Z,25.60
2023-07-14T08:01:52.931Z,25.80
2023-07-14T08:04:20.776Z,26.20
2023-07-14T08:06:48.579Z,26.20
2023-07-14T08:09:16.418Z,26.10
2023-07-14T08:11:44.206Z,26.00
2023-07-14T08:14:20.211Z,25.60
2023-07-14T08:16:47.966Z,26.10
2023-07-14T08:19:15.965Z,25.80
2023-07-14T08:21:43.719Z,26.30
2023-07-14T08:24:11.519Z,26.50
2023-07-14T08:26:40.434Z,25.70
2023-07-14T08:29:09.898Z,25.90
2023-07-14T08:31:37.713Z,26.00
2023-07-14T08:34:05.475Z,25.60
2023-07-14T08:36:33.239Z,26.20
2023-07-14T08:39:01.550Z,26.60
2023-07-14T08:41:31.880Z,26.70
2023-07-14T08:44:38.947Z,26.70
2023-07-14T08:47:23.482Z,26.90
2023-07-14T08:50:01.868Z,26.60
2023-07-14T08:52:35.765Z,26.50
2023-07-14T08:55:18.729Z,26.30
2023-07-14T08:57:58.190Z,26.20
2023-07-14T09:00:39.896Z,26.50
2023-07-14T09:03:13.699Z,26.40
2023-07-14T09:05:49.966Z,26.90
2023-07-14T09:08:17.781Z,26.80
2023-07-14T09:11:17.555Z,26.80
2023-07-14T09:13:57.762Z,26.80
2023-07-14T09:16:27.422Z,27.00
2023-07-14T09:19:08.017Z,27.40
2023-07-14T09:22:00.464Z,27.50
2023-07-14T09:24:41.656Z,27.20
2023-07-14T09:27:22.704Z,27.10
2023-07-14T09:29:51.409Z,27.00
2023-07-14T09:32:36.647Z,27.00
2023-07-14T09:35:26.754Z,26.80
2023-07-14T09:38:23.680Z,27.80
2023-07-14T09:40:59.389Z,27.70
2023-07-14T09:43:27.411Z,28.30
2023-07-14T09:45:56.251Z,27.80
2023-07-14T09:48:34.800Z,27.70
2023-07-14T09:51:12.345Z,28.30
2023-07-14T09:53:56.660Z,28.30
2023-07-14T09:56:30.622Z,27.70
2023-07-14T09:59:06.967Z,28.10
2023-07-14T10:01:35.099Z,27.80
2023-07-14T10:04:15.945Z,27.40
2023-07-14T10:06:43.739Z,27.30
2023-07-14T10:09:14.086Z,27.90
2023-07-14T10:11:50.268Z,27.70
2023-07-14T10:14:36.817Z,27.50
2023-07-14T10:17:06.257Z,27.60
2023-07-14T10:19:35.682Z,28.00
2023-07-14T10:22:20.334Z,28.00
2023-07-14T10:24:49.510Z,27.60
2023-07-14T10:27:25.166Z,27.00
2023-07-14T10:29:58.789Z,27.40
2023-07-14T10:32:34.462Z,28.00
2023-07-14T10:35:21.449Z,28.40
2023-07-14T10:38:10.909Z,28.30
2023-07-14T10:40:52.653Z,28.10
2023-07-14T10:43:27.395Z,28.00
2023-07-14T10:46:16.670Z,28.00
2023-07-14T10:48:50.454Z,28.20
2023-07-14T10:51:29.257Z,28.40
2023-07-14T10:54:05.208Z,28.20
2023-07-14T10:56:47.115Z,28.40
2023-07-14T10:59:29.752Z,28.10
2023-07-14T11:02:13.050Z,28.60
2023-07-14T11:04:48.583Z,28.80
2023-07-14T11:07:18.537Z,28.00
2023-07-14T11:09:47.527Z,28.40
2023-07-14T11:12:27.111Z,28.40
2023-07-14T11:15:13.528Z,28.20
2023-07-14T11:17:57.850Z,29.00
2023-07-14T11:20:47.012Z,28.60
2023-07-14T11:23:28.878Z,28.80
2023-07-14T11:26:18.862Z,28.90
2023-07-14T11:29:06.419Z,28.30
2023-07-14T11:31:54.969Z,28.80
2023-07-14T11:34:34.929Z,29.20
2023-07-14T11:37:21.599Z,28.50
2023-07-14T11:40:00.285Z,28.30
2023-07-14T11:42:31.680Z,28.80
2023-07-14T11:45:02.214Z,28.60
2023-07-14T11:47:37.061Z,29.30
2023-07-14T11:53:09.198Z,29.60
2023-07-14T11:55:41.835Z,29.40
2023-07-14T11:58:30.296Z,28.70
2023-07-14T12:01:05.045Z,28.30
2023-07-14T12:03:40.685Z,28.20
2023-07-14T12:06:15.925Z,28.20
2023-07-14T12:08:44.146Z,28.40
2023-07-14T12:11:40.645Z,28.50
2023-07-14T12:14:33.288Z,29.00
2023-07-14T12:17:01.676Z,28.60
2023-07-14T12:19:39.930Z,28.90
2023-07-14T12:22:10.368Z,29.10
2023-07-14T12:24:51.463Z,29.30
2023-07-14T12:27:35.922Z,29.40
2023-07-14T12:30:29.696Z,29.00
2023-07-14T12:33:06.527Z,29.00
2023-07-14T12:35:37.605Z,28.90
2023-07-14T12:38:10.275Z,28.80
2023-07-14T12:40:38.935Z,28.50
2023-07-14T12:43:10.826Z,29.10
2023-07-14T12:45:38.462Z,29.50
2023-07-14T12:48:07.948Z,28.90
2023-07-14T12:50:38.483Z,28.70
2023-07-14T12:53:06.098Z,28.80
2023-07-14T12:55:35.637Z,29.50
2023-07-14T12:58:08.672Z,29.40
2023-07-14T13:00:38.578Z,29.30
2023-07-14T13:03:11.611Z,28.80
2023-07-14T13:05:42.963Z,29.00
2023-07-14T13:08:24.727Z,29.20
2023-07-14T13:10:53.349Z,28.90
2023-07-14T13:13:26.674Z,28.70
2023-07-14T13:16:01.360Z,28.50
2023-07-14T13:18:32.823Z,28.40
2023-07-14T13:21:02.826Z,28.80
2023-07-14T13:23:32.952Z,28.60
2023-07-14T13:26:06.657Z,29.10
2023-07-14T13:28:41.243Z,28.80
2023-07-14T13:31:20.087Z,29.00
2023-07-14T13:33:48.833Z,29.30
2023-07-14T13:36:24.208Z,29.00
2023-07-14T13:38:52.289Z,28.60
2023-07-14T13:41:24.713Z,28.40
2023-07-14T13:43:53.805Z,28.30
2023-07-14T13:46:29.497Z,28.40
2023-07-14T13:48:57.205Z,28.50
2023-07-14T13:51:28.994Z,28.50
2023-07-14T13:53:57.088Z,28.30
2023-07-14T13:56:27.571Z,28.40
2023-07-14T13:59:14.798Z,28.60
2023-07-14T14:01:42.576Z,28.60
2023-07-14T14:04:14.344Z,28.50
2023-07-14T14:06:43.180Z,28.40
2023-07-14T14:09:21.570Z,28.10
2023-07-14T14:11:52.664Z,28.60
2023-07-14T14:14:21.667Z,29.10
2023-07-14T14:16:50.288Z,28.90
2023-07-14T14:19:24.428Z,28.30
2023-07-14T14:21:59.865Z,28.30
2023-07-14T14:24:27.773Z,28.20
2023-07-14T14:26:56.837Z,28.40
2023-07-14T14:29:29.135Z,28.30
2023-07-14T14:31:56.841Z,28.40
2023-07-14T14:34:24.554Z,28.20
2023-07-14T14:36:52.463Z,28.40
2023-07-14T14:39:22.701Z,28.30
2023-07-14T14:41:52.643Z,28.20
2023-07-14T14:44:22.992Z,28.40
2023-07-14T14:46:50.663Z,28.70
2023-07-14T14:49:19.347Z,28.70
2023-07-14T14:51:47.505Z,28.70
2023-07-14T14:54:16.370Z,29.10
2023-07-14T14:56:44.834Z,28.80
2023-07-14T14:59:19.789Z,28.40
2023-07-14T15:01:48.091Z,28.20
2023-07-14T15:04:23.698Z,28.20
2023-07-14T15:06:52.851Z,28.10
2023-07-14T15:09:20.786Z,28.10
2023-07-14T15:11:52.337Z,28.20
2023-07-14T15:14:32.184Z,28.40
2023-07-14T15:17:03.569Z,27.90
2023-07-14T15:19:33.686Z,28.00
2023-07-14T15:22:01.285Z,27.90
2023-07-14T15:24:28.910Z,28.10
2023-07-14T15:26:56.721Z,28.60
2023-07-14T15:29:24.471Z,28.40
2023-07-14T15:31:52.509Z,28.40
2023-07-14T15:34:20.913Z,28.20
2023-07-14T15:36:48.814Z,28.20
2023-07-14T15:39:17.415Z,28.20
2023-07-14T15:41:45.194Z,28.00
2023-07-14T15:44:15.887Z,28.10
2023-07-14T15:46:43.825Z,28.20
2023-07-14T15:49:17.792Z,28.20
2023-07-14T15:51:46.350Z,28.20
2023-07-14T15:54:33.087Z,28.10
2023-07-14T15:57:03.190Z,28.20
2023-07-14T15:59:31.590Z,28.30
2023-07-14T16:01:59.273Z,28.10
2023-07-14T16:04:26.999Z,28.20
2023-07-14T16:06:55.808Z,28.10
2023-07-14T16:09:32.432Z,28.10
2023-07-14T16:12:02.142Z,28.20
2023-07-14T16:14:31.263Z,28.20
2023-07-14T16:16:59.016Z,27.90
2023-07-14T16:19:26.705Z,27.90
2023-07-14T16:21:55.712Z,27.80
2023-07-14T16:24:36.780Z,27.90
2023-07-14T16:27:23.871Z,27.70
2023-07-14T16:29:52.796Z,27.70
2023-07-14T16:32:21.405Z,27.50
2023-07-14T16:34:50.601Z,27.50
2023-07-14T16:37:19.276Z,27.60
2023-07-14T16:39:48.042Z,27.70
2023-07-14T16:42:19.608Z,27.70
2023-07-14T16:44:47.680Z,27.50
2023-07-14T16:47:15.457Z,27.40
2023-07-14T16:49:43.214Z,27.50
2023-07-14T16:52:27.878Z,27.30
2023-07-14T16:54:55.568Z,27.30
2023-07-14T16:57:32.999Z,27.30
2023-07-14T17:00:00.700Z,27.20
2023-07-14T17:02:28.560Z,27.20
2023-07-14T17:04:56.931Z,27.10
2023-07-14T17:07:24.669Z,26.70
2023-07-14T17:09:52.352Z,26.40
2023-07-14T17:12:20.481Z,26.10
2023-07-14T17:14:48.500Z,26.10
2023-07-14T17:17:19.303Z,25.80
2023-07-14T17:19:47.645Z,25.60
2023-07-14T17:22:15.508Z,25.00
2023-07-14T17:24:50.154Z,25.20
2023-07-14T17:27:18.102Z,25.20
2023-07-14T17:29:52.063Z,25.00
2023-07-14T17:32:22.815Z,24.80
2023-07-14T17:34:51.659Z,24.50
2023-07-14T17:37:23.100Z,24.40
2023-07-14T17:39:52.782Z,24.50
2023-07-14T17:42:24.510Z,24.50
2023-07-14T17:44:56.204Z,24.50
2023-07-14T17:47:24.638Z,24.30
2023-07-14T17:49:52.319Z,24.20
2023-07-14T17:52:20.015Z,24.10
2023-07-14T17:54:48.606Z,23.60
2023-07-14T17:57:23.054Z,23.60
2023-07-14T17:59:52.550Z,23.80
2023-07-14T18:02:31.939Z,23.80
2023-07-14T18:05:00.148Z,23.70
2023-07-14T18:07:28.008Z,23.50
2023-07-14T18:09:55.763Z,23.60
2023-07-14T18:12:25.576Z,23.40
2023-07-14T18:14:53.790Z,23.20
2023-07-14T18:17:21.679Z,23.40
2023-07-14T18:19:49.711Z,23.50
2023-07-14T18:22:27.746Z,23.20
2023-07-14T18:24:57.807Z,23.10
2023-07-14T18:27:26.339Z,23.00
2023-07-14T18:29:54.110Z,23.00
2023-07-14T18:32:21.734Z,22.90
2023-07-14T18:34:49.404Z,22.70
2023-07-14T18:37:17.287Z,22.40
2023-07-14T18:39:48.423Z,22.40
2023-07-14T18:42:25.757Z,22.40
2023-07-14T18:44:54.161Z,22.50
2023-07-14T18:47:21.845Z,22.40
2023-07-14T18:49:49.818Z,22.40
2023-07-14T18:52:18.940Z,22.40
2023-07-14T18:54:46.840Z,22.30
2023-07-14T18:57:20.123Z,22.40
2023-07-14T18:59:48.721Z,22.50
2023-07-14T19:02:38.790Z,22.40
2023-07-14T19:05:10.131Z,22.20
2023-07-14T19:07:37.876Z,22.10
2023-07-14T19:10:06.990Z,22.00
2023-07-14T19:12:36.837Z,22.00
2023-07-14T19:15:22.454Z,22.10
2023-07-14T19:17:52.167Z,21.70
2023-07-14T19:20:21.135Z,21.70
2023-07-14T19:22:50.676Z,22.00
2023-07-14T19:25:22.134Z,22.00
2023-07-14T19:27:51.357Z,21.90
2023-07-14T19:30:22.957Z,22.00
2023-07-14T19:32:58.027Z,21.90
2023-07-14T19:35:25.994Z,21.80
2023-07-14T19:37:54.864Z,21.90
2023-07-14T19:40:25.798Z,22.00
2023-07-14T19:42:53.825Z,22.00
2023-07-14T19:45:26.107Z,22.10
2023-07-14T19:47:54.495Z,21.90
2023-07-14T19:50:23.900Z,21.80
2023-07-14T19:52:52.821Z,21.90
2023-07-14T19:55:30.016Z,21.90
2023-07-14T19:57:57.852Z,21.60
2023-07-14T20:00:26.105Z,21.60
2023-07-14T20:02:54.172Z,21.80
2023-07-14T20:05:25.867Z,21.80
2023-07-14T20:07:54.008Z,21.70
2023-07-14T20:10:25.658Z,21.70
2023-07-14T20:12:54.155Z,21.80
2023-07-14T20:15:24.815Z,21.80
2023-07-14T20:17:54.650Z,21.70
2023-07-14T20:20:22.568Z,21.80
2023-07-14T20:22:53.286Z,21.70
2023-07-14T20:25:21.434Z,21.50
2023-07-14T20:27:49.288Z,21.50
2023-07-14T20:30:20.378Z,21.60
2023-07-14T20:32:50.122Z,21.40
2023-07-14T20:35:21.105Z,21.40
2023-07-14T20:37:50.533Z,21.50
2023-07-14T20:40:20.148Z,21.50
2023-07-14T20:42:48.385Z,21.50
2023-07-14T20:45:21.852Z,21.40
2023-07-14T20:47:49.581Z,21.30
2023-07-14T20:50:17.865Z,21.30
2023-07-14T20:52:49.236Z,21.40
2023-07-14T20:55:28.745Z,21.10
2023-07-14T20:57:59.619Z,21.10
2023-07-14T21:00:27.730Z,21.10
2023-07-14T21:02:55.535Z,21.40
2023-07-14T21:05:27.358Z,21.40
2023-07-14T21:07:55.155Z,21.30
2023-07-14T21:10:23.060Z,21.20
2023-07-14T21:12:51.025Z,21.20
2023-07-14T21:15:18.834Z,21.20
2023-07-14T21:17:46.550Z,21.10
2023-07-14T21:20:17.294Z,21.10
2023-07-14T21:22:45.297Z,21.20
2023-07-14T21:25:15.410Z,21.10
2023-07-14T21:27:44.360Z,21.00
2023-07-14T21:30:12.853Z,21.00
2023-07-14T21:32:41.091Z,20.90
2023-07-14T21:35:20.027Z,20.90
2023-07-14T21:37:48.714Z,20.80
2023-07-14T21:40:16.996Z,20.80
2023-07-14T21:42:45.587Z,20.60
2023-07-14T21:45:16.470Z,20.60
2023-07-14T21:47:44.873Z,20.70
2023-07-14T21:50:13.686Z,20.80
2023-07-14T21:52:41.538Z,20.60
2023-07-14T21:55:17.216Z,20.70
2023-07-14T21:57:45.274Z,20.70
2023-07-14T22:00:18.317Z,20.60
2023-07-14T22:02:46.325Z,20.50
2023-07-14T22:05:16.043Z,20.60
2023-07-14T22:07:44.383Z,20.50
2023-07-14T22:10:17.738Z,20.30
2023-07-14T22:12:45.661Z,20.40
2023-07-14T22:15:22.234Z,20.40
2023-07-14T22:17:49.950Z,20.40
2023-07-14T22:20:18.558Z,20.40
2023-07-14T22:22:48.743Z,20.30
2023-07-14T22:25:16.635Z,20.20
2023-07-14T22:27:44.566Z,20.20
2023-07-14T22:30:13.268Z,20.10
2023-07-14T22:32:45.682Z,20.30
2023-07-14T22:35:19.225Z,20.30
2023-07-14T22:37:47.324Z,20.30
2023-07-14T22:40:17.215Z,20.10
2023-07-14T22:42:45.777Z,20.20
2023-07-14T22:45:16.351Z,20.10
2023-07-14T22:47:45.541Z,20.10
2023-07-14T22:50:15.391Z,20.10
2023-07-14T22:52:43.804Z,20.00
2023-07-14T22:55:17.152Z,19.80
2023-07-14T22:57:49.542Z,19.90
2023-07-14T23:00:18.764Z,19.80
2023-07-14T23:02:46.601Z,19.90
2023-07-14T23:05:20.107Z,19.90
2023-07-14T23:07:48.853Z,19.90
2023-07-14T23:10:16.653Z,19.90
2023-07-14T23:12:44.463Z,19.80
2023-07-14T23:15:18.218Z,19.70
2023-07-14T23:17:46.471Z,19.60
2023-07-14T23:20:15.525Z,19.60
2023-07-14T23:22:43.386Z,19.60
2023-07-14T23:25:20.189Z,19.50
2023-07-14T23:27:48.451Z,19.50
2023-07-14T23:30:16.199Z,19.50
2023-07-14T23:32:43.979Z,19.50
2023-07-14T23:35:16.785Z,19.40
2023-07-14T23:37:44.540Z,19.40
2023-07-14T23:40:19.360Z,19.40
2023-07-14T23:42:48.062Z,19.40
2023-07-14T23:45:19.997Z,19.30
2023-07-14T23:47:47.695Z,19.30
2023-07-14T23:50:15.547Z,19.30
2023-07-14T23:52:43.852Z,19.20
2023-07-14T23:55:25.189Z,19.20
2023-07-14T23:57:55.112Z,19.30
